首页
METAR-TAF:

METAR-TAF

机场 :

克拉斯诺达尔, 俄罗斯

纬度: 45-02N, 经度: 039-09E, 海拔: 33米

当前天气观测

该预报发布于33分钟前的00:00 UTC
风速6节,风向北转东北
温度 22°C
湿度 69%
气压 1017 hPa
能见度10公里或以上
1500米以下无云,无积雨云

METAR: URKK 260000Z 02003MPS CAVOK 22/16 Q1017 R05R/CLRD70 TEMPO VRB09G14MPS 2000 TSRA BKN011 BKN020CB RMK QFE759

时间: 03:33 (00:33 UTC)

预报

该预报发布于1小时和35分钟前的22:58 UTC
预报有效从26日的 00点(UTC)到 26日的 24点(UTC)
风速12节,风向北转东北,有时为25节阵风
能见度10公里或以上
散云层高于3000英尺, 积雨云.
短暂存在
从 26日的 00点(UTC)到 26日的 09点(UTC)
风速14节,风向多变,有时为27节阵风
能見度: 3100
多云层高于2000英尺, 积雨云.
雷暴, 小雨
短暂存在
从 26日的 09点(UTC)到 26日的 18点(UTC)
风速14节,风向东转东北,有时为27节阵风

TAF: URKK 252258Z 2600/2624 03006G13MPS 9999 SCT030CB TEMPO 2600/2609 VRB07G14MPS 3100 -TSRA BKN020CB TEMPO 2609/2618 07007G14MPS

超过4000个机场的气象观测和天气预报(METAR&TAF报告)。

可查询的气象台以黄色和红色小点在地图上表示。

将鼠标移到小点上方,可查看气象台名称。

然后点击查看天气观测和预报。

如需切换地图:点击带黑十字的绿色按钮放大地图;点击带横线的绿色按钮缩小地图;或者点击绿色箭头查看邻近地区的地图。


METAR-TAF: